sensor_id;sensor_type;location;lat;lon;timestamp;temperature;humidity
65876;HTU21D;52657;51.128;5.938;2023-08-01T00:02:02;20.86;77.43
65876;HTU21D;52657;51.128;5.938;2023-08-01T00:04:28;20.83;77.47
65876;HTU21D;52657;51.128;5.938;2023-08-01T00:06:54;20.81;77.48
65876;HTU21D;52657;51.128;5.938;2023-08-01T00:09:23;20.81;77.40
65876;HTU21D;52657;51.128;5.938;2023-08-01T00:11:52;20.84;77.33
65876;HTU21D;52657;51.128;5.938;2023-08-01T00:14:18;20.85;77.25
65876;HTU21D;52657;51.128;5.938;2023-08-01T00:16:45;20.85;77.25
65876;HTU21D;52657;51.128;5.938;2023-08-01T00:19:11;20.87;77.12
65876;HTU21D;52657;51.128;5.938;2023-08-01T00:21:38;20.90;77.01
65876;HTU21D;52657;51.128;5.938;2023-08-01T00:24:04;20.94;76.88
65876;HTU21D;52657;51.128;5.938;2023-08-01T00:26:32;20.96;76.76
65876;HTU21D;52657;51.128;5.938;2023-08-01T00:28:57;20.96;76.64
65876;HTU21D;52657;51.128;5.938;2023-08-01T00:31:23;20.95;76.58
65876;HTU21D;52657;51.128;5.938;2023-08-01T00:33:49;20.94;76.70
65876;HTU21D;52657;51.128;5.938;2023-08-01T00:36:15;20.90;76.68
65876;HTU21D;52657;51.128;5.938;2023-08-01T00:38:40;20.88;76.76
65876;HTU21D;52657;51.128;5.938;2023-08-01T00:41:11;20.85;76.79
65876;HTU21D;52657;51.128;5.938;2023-08-01T00:43:37;20.84;76.81
65876;HTU21D;52657;51.128;5.938;2023-08-01T00:46:05;20.84;76.73
65876;HTU21D;52657;51.128;5.938;2023-08-01T00:48:31;20.80;76.57
65876;HTU21D;52657;51.128;5.938;2023-08-01T00:51:00;20.76;76.68
65876;HTU21D;52657;51.128;5.938;2023-08-01T00:53:27;20.71;76.73
65876;HTU21D;52657;51.128;5.938;2023-08-01T00:55:55;20.68;76.83
65876;HTU21D;52657;51.128;5.938;2023-08-01T00:58:22;20.68;76.80
65876;HTU21D;52657;51.128;5.938;2023-08-01T01:00:48;20.69;76.70
65876;HTU21D;52657;51.128;5.938;2023-08-01T01:03:14;20.65;76.60
65876;HTU21D;52657;51.128;5.938;2023-08-01T01:05:49;20.62;76.60
65876;HTU21D;52657;51.128;5.938;2023-08-01T01:08:18;20.59;76.74
65876;HTU21D;52657;51.128;5.938;2023-08-01T01:10:44;20.59;76.76
65876;HTU21D;52657;51.128;5.938;2023-08-01T01:13:10;20.61;76.62
65876;HTU21D;52657;51.128;5.938;2023-08-01T01:15:36;20.60;76.50
65876;HTU21D;52657;51.128;5.938;2023-08-01T01:18:02;20.60;76.36
65876;HTU21D;52657;51.128;5.938;2023-08-01T01:20:37;20.59;76.40
65876;HTU21D;52657;51.128;5.938;2023-08-01T01:23:08;20.60;76.31
65876;HTU21D;52657;51.128;5.938;2023-08-01T01:25:36;20.60;76.24
65876;HTU21D;52657;51.128;5.938;2023-08-01T01:28:05;20.56;76.19
65876;HTU21D;52657;51.128;5.938;2023-08-01T01:30:33;20.51;76.23
65876;HTU21D;52657;51.128;5.938;2023-08-01T01:33:04;20.48;76.18
65876;HTU21D;52657;51.128;5.938;2023-08-01T01:35:35;20.41;76.12
65876;HTU21D;52657;51.128;5.938;2023-08-01T01:38:02;20.36;76.09
65876;HTU21D;52657;51.128;5.938;2023-08-01T01:40:32;20.32;76.19
65876;HTU21D;52657;51.128;5.938;2023-08-01T01:42:59;20.31;76.06
65876;HTU21D;52657;51.128;5.938;2023-08-01T01:45:25;20.30;75.97
65876;HTU21D;52657;51.128;5.938;2023-08-01T01:47:51;20.31;75.79
65876;HTU21D;52657;51.128;5.938;2023-08-01T01:50:17;20.29;75.71
65876;HTU21D;52657;51.128;5.938;2023-08-01T01:52:45;20.26;75.70
65876;HTU21D;52657;51.128;5.938;2023-08-01T01:55:11;20.28;75.65
65876;HTU21D;52657;51.128;5.938;2023-08-01T01:57:38;20.28;75.55
65876;HTU21D;52657;51.128;5.938;2023-08-01T02:00:05;20.27;75.41
65876;HTU21D;52657;51.128;5.938;2023-08-01T02:02:38;20.25;75.38
65876;HTU21D;52657;51.128;5.938;2023-08-01T02:05:04;20.26;75.48
65876;HTU21D;52657;51.128;5.938;2023-08-01T02:07:30;20.26;75.18
65876;HTU21D;52657;51.128;5.938;2023-08-01T02:09:56;20.21;75.18
65876;HTU21D;52657;51.128;5.938;2023-08-01T02:12:22;20.20;75.06
65876;HTU21D;52657;51.128;5.938;2023-08-01T02:14:48;20.17;74.95
65876;HTU21D;52657;51.128;5.938;2023-08-01T02:17:14;20.15;74.87
65876;HTU21D;52657;51.128;5.938;2023-08-01T02:19:40;20.10;74.60
65876;HTU21D;52657;51.128;5.938;2023-08-01T02:22:06;20.03;74.70
65876;HTU21D;52657;51.128;5.938;2023-08-01T02:24:32;19.99;74.45
65876;HTU21D;52657;51.128;5.938;2023-08-01T02:26:58;19.95;74.21
65876;HTU21D;52657;51.128;5.938;2023-08-01T02:29:24;19.84;74.22
65876;HTU21D;52657;51.128;5.938;2023-08-01T02:31:50;19.76;74.40
65876;HTU21D;52657;51.128;5.938;2023-08-01T02:34:16;19.72;74.28
65876;HTU21D;52657;51.128;5.938;2023-08-01T02:36:42;19.69;74.30
65876;HTU21D;52657;51.128;5.938;2023-08-01T02:39:08;19.66;74.27
65876;HTU21D;52657;51.128;5.938;2023-08-01T02:41:34;19.62;74.13
65876;HTU21D;52657;51.128;5.938;2023-08-01T02:44:00;19.58;74.18
65876;HTU21D;52657;51.128;5.938;2023-08-01T02:46:27;19.55;74.06
65876;HTU21D;52657;51.128;5.938;2023-08-01T02:48:55;19.47;74.09
65876;HTU21D;52657;51.128;5.938;2023-08-01T02:51:21;19.45;74.18
65876;HTU21D;52657;51.128;5.938;2023-08-01T02:53:46;19.42;74.12
65876;HTU21D;52657;51.128;5.938;2023-08-01T02:56:15;19.40;74.07
65876;HTU21D;52657;51.128;5.938;2023-08-01T02:58:41;19.36;73.93
65876;HTU21D;52657;51.128;5.938;2023-08-01T03:01:08;19.33;73.93
65876;HTU21D;52657;51.128;5.938;2023-08-01T03:03:35;19.30;73.92
65876;HTU21D;52657;51.128;5.938;2023-08-01T03:06:02;19.27;73.93
65876;HTU21D;52657;51.128;5.938;2023-08-01T03:08:28;19.25;73.85
65876;HTU21D;52657;51.128;5.938;2023-08-01T03:10:55;19.21;74.01
65876;HTU21D;52657;51.128;5.938;2023-08-01T03:13:22;19.20;73.90
65876;HTU21D;52657;51.128;5.938;2023-08-01T03:15:48;19.21;73.90
65876;HTU21D;52657;51.128;5.938;2023-08-01T03:18:13;19.20;73.91
65876;HTU21D;52657;51.128;5.938;2023-08-01T03:20:39;19.15;74.02
65876;HTU21D;52657;51.128;5.938;2023-08-01T03:23:05;19.16;74.24
65876;HTU21D;52657;51.128;5.938;2023-08-01T03:25:32;19.14;74.31
65876;HTU21D;52657;51.128;5.938;2023-08-01T03:27:58;19.15;74.44
65876;HTU21D;52657;51.128;5.938;2023-08-01T03:30:25;19.12;74.48
65876;HTU21D;52657;51.128;5.938;2023-08-01T03:32:51;19.10;74.74
65876;HTU21D;52657;51.128;5.938;2023-08-01T03:35:17;19.15;74.80
65876;HTU21D;52657;51.128;5.938;2023-08-01T03:37:43;19.21;74.70
65876;HTU21D;52657;51.128;5.938;2023-08-01T03:40:10;19.24;74.70
65876;HTU21D;52657;51.128;5.938;2023-08-01T03:42:37;19.24;74.67
65876;HTU21D;52657;51.128;5.938;2023-08-01T03:45:03;19.22;74.74
65876;HTU21D;52657;51.128;5.938;2023-08-01T03:47:29;19.16;74.80
65876;HTU21D;52657;51.128;5.938;2023-08-01T03:49:55;19.13;74.99
65876;HTU21D;52657;51.128;5.938;2023-08-01T03:52:21;19.12;75.15
65876;HTU21D;52657;51.128;5.938;2023-08-01T03:54:48;19.15;75.01
65876;HTU21D;52657;51.128;5.938;2023-08-01T03:57:14;19.16;74.94
65876;HTU21D;52657;51.128;5.938;2023-08-01T03:59:40;19.13;74.94
65876;HTU21D;52657;51.128;5.938;2023-08-01T04:02:06;19.11;75.06
65876;HTU21D;52657;51.128;5.938;2023-08-01T04:04:32;19.11;74.99
65876;HTU21D;52657;51.128;5.938;2023-08-01T04:06:58;19.10;75.02
65876;HTU21D;52657;51.128;5.938;2023-08-01T04:09:23;19.10;75.02
65876;HTU21D;52657;51.128;5.938;2023-08-01T04:11:50;19.16;74.70
65876;HTU21D;52657;51.128;5.938;2023-08-01T04:14:16;19.09;74.87
65876;HTU21D;52657;51.128;5.938;2023-08-01T04:16:42;19.07;74.77
65876;HTU21D;52657;51.128;5.938;2023-08-01T04:19:07;18.98;74.99
65876;HTU21D;52657;51.128;5.938;2023-08-01T04:21:33;18.91;75.13
65876;HTU21D;52657;51.128;5.938;2023-08-01T04:23:59;18.89;75.19
65876;HTU21D;52657;51.128;5.938;2023-08-01T04:26:25;18.84;75.21
65876;HTU21D;52657;51.128;5.938;2023-08-01T04:28:50;18.86;75.20
65876;HTU21D;52657;51.128;5.938;2023-08-01T04:31:16;18.85;75.11
65876;HTU21D;52657;51.128;5.938;2023-08-01T04:33:43;18.86;74.99
65876;HTU21D;52657;51.128;5.938;2023-08-01T04:36:10;18.86;74.86
65876;HTU21D;52657;51.128;5.938;2023-08-01T04:38:36;18.88;74.78
65876;HTU21D;52657;51.128;5.938;2023-08-01T04:41:01;18.81;74.76
65876;HTU21D;52657;51.128;5.938;2023-08-01T04:43:28;18.74;74.90
65876;HTU21D;52657;51.128;5.938;2023-08-01T04:45:54;18.72;75.11
65876;HTU21D;52657;51.128;5.938;2023-08-01T04:48:20;18.73;74.99
65876;HTU21D;52657;51.128;5.938;2023-08-01T04:50:46;18.71;75.15
65876;HTU21D;52657;51.128;5.938;2023-08-01T04:53:12;18.72;75.16
65876;HTU21D;52657;51.128;5.938;2023-08-01T04:55:38;18.76;75.12
65876;HTU21D;52657;51.128;5.938;2023-08-01T04:58:04;18.77;75.23
65876;HTU21D;52657;51.128;5.938;2023-08-01T05:00:30;18.74;75.34
65876;HTU21D;52657;51.128;5.938;2023-08-01T05:02:55;18.74;75.33
65876;HTU21D;52657;51.128;5.938;2023-08-01T05:05:21;18.73;75.50
65876;HTU21D;52657;51.128;5.938;2023-08-01T05:07:47;18.78;75.53
65876;HTU21D;52657;51.128;5.938;2023-08-01T05:10:12;18.74;75.77
65876;HTU21D;52657;51.128;5.938;2023-08-01T05:12:38;18.78;75.70
65876;HTU21D;52657;51.128;5.938;2023-08-01T05:15:04;18.82;75.70
65876;HTU21D;52657;51.128;5.938;2023-08-01T05:17:30;18.82;75.61
65876;HTU21D;52657;51.128;5.938;2023-08-01T05:19:56;18.82;75.73
65876;HTU21D;52657;51.128;5.938;2023-08-01T05:22:22;18.88;75.62
65876;HTU21D;52657;51.128;5.938;2023-08-01T05:24:48;18.94;75.42
65876;HTU21D;52657;51.128;5.938;2023-08-01T05:27:14;18.97;75.20
65876;HTU21D;52657;51.128;5.938;2023-08-01T05:29:40;19.00;75.15
65876;HTU21D;52657;51.128;5.938;2023-08-01T05:32:08;19.09;75.08
65876;HTU21D;52657;51.128;5.938;2023-08-01T05:34:34;19.14;74.83
65876;HTU21D;52657;51.128;5.938;2023-08-01T05:37:00;19.17;74.49
65876;HTU21D;52657;51.128;5.938;2023-08-01T05:39:26;19.15;74.51
65876;HTU21D;52657;51.128;5.938;2023-08-01T05:41:52;19.14;74.56
65876;HTU21D;52657;51.128;5.938;2023-08-01T05:44:18;19.18;74.42
65876;HTU21D;52657;51.128;5.938;2023-08-01T05:46:44;19.15;74.42
65876;HTU21D;52657;51.128;5.938;2023-08-01T05:49:10;19.18;74.47
65876;HTU21D;52657;51.128;5.938;2023-08-01T05:51:36;19.20;74.33
65876;HTU21D;52657;51.128;5.938;2023-08-01T05:54:01;19.16;74.49
65876;HTU21D;52657;51.128;5.938;2023-08-01T05:56:27;19.21;74.61
65876;HTU21D;52657;51.128;5.938;2023-08-01T05:58:53;19.23;74.30
65876;HTU21D;52657;51.128;5.938;2023-08-01T06:01:19;19.28;74.25
65876;HTU21D;52657;51.128;5.938;2023-08-01T06:03:45;19.35;74.15
65876;HTU21D;52657;51.128;5.938;2023-08-01T06:06:11;19.45;74.02
65876;HTU21D;52657;51.128;5.938;2023-08-01T06:08:37;19.54;73.70
65876;HTU21D;52657;51.128;5.938;2023-08-01T06:11:02;19.65;73.36
65876;HTU21D;52657;51.128;5.938;2023-08-01T06:13:28;19.77;72.89
65876;HTU21D;52657;51.128;5.938;2023-08-01T06:15:54;19.86;72.77
65876;HTU21D;52657;51.128;5.938;2023-08-01T06:18:20;19.91;72.36
65876;HTU21D;52657;51.128;5.938;2023-08-01T06:20:46;19.99;72.08
65876;HTU21D;52657;51.128;5.938;2023-08-01T06:23:12;20.03;71.60
65876;HTU21D;52657;51.128;5.938;2023-08-01T06:25:38;20.09;71.51
65876;HTU21D;52657;51.128;5.938;2023-08-01T06:28:04;20.12;71.42
65876;HTU21D;52657;51.128;5.938;2023-08-01T06:30:35;20.21;70.96
65876;HTU21D;52657;51.128;5.938;2023-08-01T06:33:01;20.22;70.34
65876;HTU21D;52657;51.128;5.938;2023-08-01T06:35:27;20.25;70.11
65876;HTU21D;52657;51.128;5.938;2023-08-01T06:37:53;20.28;70.13
65876;HTU21D;52657;51.128;5.938;2023-08-01T06:40:19;20.26;70.08
65876;HTU21D;52657;51.128;5.938;2023-08-01T06:42:44;20.28;69.81
65876;HTU21D;52657;51.128;5.938;2023-08-01T06:45:10;20.35;69.98
65876;HTU21D;52657;51.128;5.938;2023-08-01T06:47:36;20.57;69.79
65876;HTU21D;52657;51.128;5.938;2023-08-01T06:50:02;20.71;68.87
65876;HTU21D;52657;51.128;5.938;2023-08-01T06:52:28;20.92;69.20
65876;HTU21D;52657;51.128;5.938;2023-08-01T06:54:54;21.28;68.21
65876;HTU21D;52657;51.128;5.938;2023-08-01T06:57:19;21.76;67.16
65876;HTU21D;52657;51.128;5.938;2023-08-01T06:59:45;22.23;65.91
65876;HTU21D;52657;51.128;5.938;2023-08-01T07:02:11;22.88;64.38
65876;HTU21D;52657;51.128;5.938;2023-08-01T07:04:37;23.59;62.83
65876;HTU21D;52657;51.128;5.938;2023-08-01T07:07:03;23.88;59.17
65876;HTU21D;52657;51.128;5.938;2023-08-01T07:09:29;24.02;59.58
65876;HTU21D;52657;51.128;5.938;2023-08-01T07:11:55;24.32;58.22
65876;HTU21D;52657;51.128;5.938;2023-08-01T07:14:21;24.36;58.01
65876;HTU21D;52657;51.128;5.938;2023-08-01T07:16:47;24.27;57.27
65876;HTU21D;52657;51.128;5.938;2023-08-01T07:19:12;23.92;57.48
65876;HTU21D;52657;51.128;5.938;2023-08-01T07:21:38;23.55;57.99
65876;HTU21D;52657;51.128;5.938;2023-08-01T07:24:04;23.15;58.51
65876;HTU21D;52657;51.128;5.938;2023-08-01T07:26:31;22.75;59.34
65876;HTU21D;52657;51.128;5.938;2023-08-01T07:28:56;22.36;60.14
65876;HTU21D;52657;51.128;5.938;2023-08-01T07:31:22;22.09;60.92
65876;HTU21D;52657;51.128;5.938;2023-08-01T07:33:48;21.90;61.57
65876;HTU21D;52657;51.128;5.938;2023-08-01T07:36:14;21.75;62.50
65876;HTU21D;52657;51.128;5.938;2023-08-01T07:38:40;21.66;63.07
65876;HTU21D;52657;51.128;5.938;2023-08-01T07:41:06;21.57;63.44
65876;HTU21D;52657;51.128;5.938;2023-08-01T07:43:33;21.47;63.60
65876;HTU21D;52657;51.128;5.938;2023-08-01T07:45:59;21.50;64.43
65876;HTU21D;52657;51.128;5.938;2023-08-01T07:48:25;21.61;64.43
65876;HTU21D;52657;51.128;5.938;2023-08-01T07:50:51;21.92;64.84
65876;HTU21D;52657;51.128;5.938;2023-08-01T07:53:17;22.12;62.97
65876;HTU21D;52657;51.128;5.938;2023-08-01T07:55:43;22.07;62.36
65876;HTU21D;52657;51.128;5.938;2023-08-01T07:58:09;22.07;62.24
65876;HTU21D;52657;51.128;5.938;2023-08-01T08:00:36;21.99;62.65
65876;HTU21D;52657;51.128;5.938;2023-08-01T08:03:01;21.88;62.86
65876;HTU21D;52657;51.128;5.938;2023-08-01T08:05:27;21.84;63.00
65876;HTU21D;52657;51.128;5.938;2023-08-01T08:07:53;21.85;63.26
65876;HTU21D;52657;51.128;5.938;2023-08-01T08:10:19;21.88;63.05
65876;HTU21D;52657;51.128;5.938;2023-08-01T08:12:45;21.76;63.21
65876;HTU21D;52657;51.128;5.938;2023-08-01T08:15:11;21.77;63.40
65876;HTU21D;52657;51.128;5.938;2023-08-01T08:17:39;21.78;63.16
65876;HTU21D;52657;51.128;5.938;2023-08-01T08:20:05;21.74;63.46
65876;HTU21D;52657;51.128;5.938;2023-08-01T08:22:31;21.73;63.24
65876;HTU21D;52657;51.128;5.938;2023-08-01T08:24:57;21.67;63.27
65876;HTU21D;52657;51.128;5.938;2023-08-01T08:27:23;21.88;64.01
65876;HTU21D;52657;51.128;5.938;2023-08-01T08:29:50;22.24;63.40
65876;HTU21D;52657;51.128;5.938;2023-08-01T08:32:15;22.68;62.28
65876;HTU21D;52657;51.128;5.938;2023-08-01T08:34:41;23.06;61.10
65876;HTU21D;52657;51.128;5.938;2023-08-01T08:37:07;23.16;59.96
65876;HTU21D;52657;51.128;5.938;2023-08-01T08:39:33;23.29;59.28
65876;HTU21D;52657;51.128;5.938;2023-08-01T08:41:59;23.42;58.99
65876;HTU21D;52657;51.128;5.938;2023-08-01T08:44:25;23.44;57.50
65876;HTU21D;52657;51.128;5.938;2023-08-01T08:46:52;23.40;58.00
65876;HTU21D;52657;51.128;5.938;2023-08-01T08:49:20;23.54;58.48
65876;HTU21D;52657;51.128;5.938;2023-08-01T08:51:48;23.66;57.59
65876;HTU21D;52657;51.128;5.938;2023-08-01T08:54:16;23.80;57.51
65876;HTU21D;52657;51.128;5.938;2023-08-01T08:56:43;23.97;56.67
65876;HTU21D;52657;51.128;5.938;2023-08-01T08:59:10;24.13;56.80
65876;HTU21D;52657;51.128;5.938;2023-08-01T09:01:37;24.43;56.95
65876;HTU21D;52657;51.128;5.938;2023-08-01T09:04:03;24.51;55.63
65876;HTU21D;52657;51.128;5.938;2023-08-01T09:06:35;24.40;54.87
65876;HTU21D;52657;51.128;5.938;2023-08-01T09:09:13;24.26;54.99
65876;HTU21D;52657;51.128;5.938;2023-08-01T09:11:49;24.04;55.59
65876;HTU21D;52657;51.128;5.938;2023-08-01T09:14:16;23.79;55.90
65876;HTU21D;52657;51.128;5.938;2023-08-01T09:16:43;23.70;56.22
65876;HTU21D;52657;51.128;5.938;2023-08-01T09:19:10;23.57;55.83
65876;HTU21D;52657;51.128;5.938;2023-08-01T09:21:39;23.45;56.39
65876;HTU21D;52657;51.128;5.938;2023-08-01T09:24:19;23.47;56.64
65876;HTU21D;52657;51.128;5.938;2023-08-01T09:26:48;23.57;56.68
65876;HTU21D;52657;51.128;5.938;2023-08-01T09:29:18;23.76;55.73
65876;HTU21D;52657;51.128;5.938;2023-08-01T09:31:44;23.81;55.90
65876;HTU21D;52657;51.128;5.938;2023-08-01T09:34:22;23.76;55.82
65876;HTU21D;52657;51.128;5.938;2023-08-01T09:36:48;23.73;55.11
65876;HTU21D;52657;51.128;5.938;2023-08-01T09:39:19;23.70;55.20
65876;HTU21D;52657;51.128;5.938;2023-08-01T09:41:45;23.72;54.65
65876;HTU21D;52657;51.128;5.938;2023-08-01T09:44:15;23.67;54.76
65876;HTU21D;52657;51.128;5.938;2023-08-01T09:46:41;23.69;54.49
65876;HTU21D;52657;51.128;5.938;2023-08-01T09:49:08;23.69;54.77
65876;HTU21D;52657;51.128;5.938;2023-08-01T09:51:49;23.76;55.00
65876;HTU21D;52657;51.128;5.938;2023-08-01T09:54:16;23.91;55.43
65876;HTU21D;52657;51.128;5.938;2023-08-01T09:56:50;24.15;54.30
65876;HTU21D;52657;51.128;5.938;2023-08-01T09:59:26;24.44;53.68
65876;HTU21D;52657;51.128;5.938;2023-08-01T10:01:53;24.70;52.82
65876;HTU21D;52657;51.128;5.938;2023-08-01T10:04:30;24.93;51.16
65876;HTU21D;52657;51.128;5.938;2023-08-01T10:07:08;24.93;51.38
65876;HTU21D;52657;51.128;5.938;2023-08-01T10:09:34;24.86;51.90
65876;HTU21D;52657;51.128;5.938;2023-08-01T10:12:05;24.85;51.74
65876;HTU21D;52657;51.128;5.938;2023-08-01T10:14:35;24.84;51.96
65876;HTU21D;52657;51.128;5.938;2023-08-01T10:17:02;24.85;50.98
65876;HTU21D;52657;51.128;5.938;2023-08-01T10:19:31;24.97;50.53
65876;HTU21D;52657;51.128;5.938;2023-08-01T10:22:00;25.06;50.71
65876;HTU21D;52657;51.128;5.938;2023-08-01T10:24:28;25.13;50.29
65876;HTU21D;52657;51.128;5.938;2023-08-01T10:26:55;25.20;49.58
65876;HTU21D;52657;51.128;5.938;2023-08-01T10:29:22;25.23;49.15
65876;HTU21D;52657;51.128;5.938;2023-08-01T10:31:54;25.17;48.76
65876;HTU21D;52657;51.128;5.938;2023-08-01T10:34:20;25.06;48.86
65876;HTU21D;52657;51.128;5.938;2023-08-01T10:37:13;25.13;49.89
65876;HTU21D;52657;51.128;5.938;2023-08-01T10:39:39;25.27;48.73
65876;HTU21D;52657;51.128;5.938;2023-08-01T10:42:05;25.42;48.12
65876;HTU21D;52657;51.128;5.938;2023-08-01T10:44:32;25.37;47.88
65876;HTU21D;52657;51.128;5.938;2023-08-01T10:47:02;25.34;47.85
65876;HTU21D;52657;51.128;5.938;2023-08-01T10:49:42;25.23;47.68
65876;HTU21D;52657;51.128;5.938;2023-08-01T10:52:24;25.20;47.71
65876;HTU21D;52657;51.128;5.938;2023-08-01T10:55:00;25.28;47.76
65876;HTU21D;52657;51.128;5.938;2023-08-01T10:57:30;25.44;47.85
65876;HTU21D;52657;51.128;5.938;2023-08-01T11:00:00;25.56;48.70
65876;HTU21D;52657;51.128;5.938;2023-08-01T11:02:28;25.61;49.76
65876;HTU21D;52657;51.128;5.938;2023-08-01T11:04:59;25.60;50.77
65876;HTU21D;52657;51.128;5.938;2023-08-01T11:07:26;25.67;51.60
65876;HTU21D;52657;51.128;5.938;2023-08-01T11:10:13;25.60;51.59
65876;HTU21D;52657;51.128;5.938;2023-08-01T11:12:42;25.44;52.17
65876;HTU21D;52657;51.128;5.938;2023-08-01T11:15:10;25.25;52.31
65876;HTU21D;52657;51.128;5.938;2023-08-01T11:17:41;25.00;53.26
65876;HTU21D;52657;51.128;5.938;2023-08-01T11:20:09;24.61;54.62
65876;HTU21D;52657;51.128;5.938;2023-08-01T11:22:37;24.34;55.10
65876;HTU21D;52657;51.128;5.938;2023-08-01T11:25:03;24.18;54.07
65876;HTU21D;52657;51.128;5.938;2023-08-01T11:27:30;23.98;54.12
65876;HTU21D;52657;51.128;5.938;2023-08-01T11:29:56;23.84;53.84
65876;HTU21D;52657;51.128;5.938;2023-08-01T11:32:33;23.74;54.23
65876;HTU21D;52657;51.128;5.938;2023-08-01T11:35:00;23.82;54.49
65876;HTU21D;52657;51.128;5.938;2023-08-01T11:37:26;23.83;54.40
65876;HTU21D;52657;51.128;5.938;2023-08-01T11:39:53;23.77;54.20
65876;HTU21D;52657;51.128;5.938;2023-08-01T11:42:19;23.72;55.27
65876;HTU21D;52657;51.128;5.938;2023-08-01T11:44:45;23.70;55.97
65876;HTU21D;52657;51.128;5.938;2023-08-01T11:47:14;23.77;56.89
65876;HTU21D;52657;51.128;5.938;2023-08-01T11:49:46;23.97;57.18
65876;HTU21D;52657;51.128;5.938;2023-08-01T11:52:30;24.20;56.58
65876;HTU21D;52657;51.128;5.938;2023-08-01T11:54:56;24.35;56.76
65876;HTU21D;52657;51.128;5.938;2023-08-01T11:57:23;24.47;55.99
65876;HTU21D;52657;51.128;5.938;2023-08-01T11:59:50;24.61;55.51
65876;HTU21D;52657;51.128;5.938;2023-08-01T12:02:28;24.71;54.13
65876;HTU21D;52657;51.128;5.938;2023-08-01T12:04:55;24.82;54.03
65876;HTU21D;52657;51.128;5.938;2023-08-01T12:07:25;24.91;52.87
65876;HTU21D;52657;51.128;5.938;2023-08-01T12:09:58;24.95;52.75
65876;HTU21D;52657;51.128;5.938;2023-08-01T12:12:26;24.95;52.31
65876;HTU21D;52657;51.128;5.938;2023-08-01T12:14:53;24.95;52.65
65876;HTU21D;52657;51.128;5.938;2023-08-01T12:17:20;25.01;52.06
65876;HTU21D;52657;51.128;5.938;2023-08-01T12:19:46;25.06;51.48
65876;HTU21D;52657;51.128;5.938;2023-08-01T12:22:13;25.14;51.31
65876;HTU21D;52657;51.128;5.938;2023-08-01T12:24:40;25.23;50.75
65876;HTU21D;52657;51.128;5.938;2023-08-01T12:27:08;25.21;50.38
65876;HTU21D;52657;51.128;5.938;2023-08-01T12:29:34;25.21;50.53
65876;HTU21D;52657;51.128;5.938;2023-08-01T12:32:04;25.22;49.76
65876;HTU21D;52657;51.128;5.938;2023-08-01T12:34:32;25.16;50.19
65876;HTU21D;52657;51.128;5.938;2023-08-01T12:36:58;25.12;50.22
65876;HTU21D;52657;51.128;5.938;2023-08-01T12:39:24;25.12;50.24
65876;HTU21D;52657;51.128;5.938;2023-08-01T12:41:52;25.16;49.02
65876;HTU21D;52657;51.128;5.938;2023-08-01T12:44:20;25.09;48.63
65876;HTU21D;52657;51.128;5.938;2023-08-01T12:46:46;25.12;49.47
65876;HTU21D;52657;51.128;5.938;2023-08-01T12:49:12;24.99;50.24
65876;HTU21D;52657;51.128;5.938;2023-08-01T12:51:38;24.91;50.98
65876;HTU21D;52657;51.128;5.938;2023-08-01T12:54:04;24.92;51.08
65876;HTU21D;52657;51.128;5.938;2023-08-01T12:56:31;25.07;50.18
65876;HTU21D;52657;51.128;5.938;2023-08-01T12:58:57;25.05;50.30
65876;HTU21D;52657;51.128;5.938;2023-08-01T13:01:23;25.08;49.71
65876;HTU21D;52657;51.128;5.938;2023-08-01T13:03:48;25.13;49.12
65876;HTU21D;52657;51.128;5.938;2023-08-01T13:06:14;25.16;48.73
65876;HTU21D;52657;51.128;5.938;2023-08-01T13:08:40;25.18;48.87
65876;HTU21D;52657;51.128;5.938;2023-08-01T13:11:13;25.21;48.66
65876;HTU21D;52657;51.128;5.938;2023-08-01T13:13:40;25.20;47.36
65876;HTU21D;52657;51.128;5.938;2023-08-01T13:16:06;25.17;46.84
65876;HTU21D;52657;51.128;5.938;2023-08-01T13:18:32;25.13;46.56
65876;HTU21D;52657;51.128;5.938;2023-08-01T13:20:58;25.14;46.66
65876;HTU21D;52657;51.128;5.938;2023-08-01T13:23:25;25.15;47.13
65876;HTU21D;52657;51.128;5.938;2023-08-01T13:25:51;25.08;49.92
65876;HTU21D;52657;51.128;5.938;2023-08-01T13:28:17;25.06;51.66
65876;HTU21D;52657;51.128;5.938;2023-08-01T13:30:46;25.08;52.81
65876;HTU21D;52657;51.128;5.938;2023-08-01T13:33:12;25.14;52.40
65876;HTU21D;52657;51.128;5.938;2023-08-01T13:35:38;25.08;52.44
65876;HTU21D;52657;51.128;5.938;2023-08-01T13:38:04;25.10;52.82
65876;HTU21D;52657;51.128;5.938;2023-08-01T13:40:30;25.12;52.43
65876;HTU21D;52657;51.128;5.938;2023-08-01T13:42:56;25.19;51.91
65876;HTU21D;52657;51.128;5.938;2023-08-01T13:45:22;25.28;51.13
65876;HTU21D;52657;51.128;5.938;2023-08-01T13:47:48;25.40;50.36
65876;HTU21D;52657;51.128;5.938;2023-08-01T13:50:14;25.51;49.90
65876;HTU21D;52657;51.128;5.938;2023-08-01T13:52:41;25.56;49.11
65876;HTU21D;52657;51.128;5.938;2023-08-01T13:55:07;25.54;48.69
65876;HTU21D;52657;51.128;5.938;2023-08-01T13:57:33;25.47;47.93
65876;HTU21D;52657;51.128;5.938;2023-08-01T13:59:59;25.38;47.63
65876;HTU21D;52657;51.128;5.938;2023-08-01T14:02:25;25.39;47.76
65876;HTU21D;52657;51.128;5.938;2023-08-01T14:04:51;25.39;47.53
65876;HTU21D;52657;51.128;5.938;2023-08-01T14:07:18;25.35;47.93
65876;HTU21D;52657;51.128;5.938;2023-08-01T14:09:44;25.39;47.85
65876;HTU21D;52657;51.128;5.938;2023-08-01T14:12:10;25.50;48.02
65876;HTU21D;52657;51.128;5.938;2023-08-01T14:14:36;25.58;47.85
65876;HTU21D;52657;51.128;5.938;2023-08-01T14:17:02;25.61;47.90
65876;HTU21D;52657;51.128;5.938;2023-08-01T14:19:27;25.59;47.69
65876;HTU21D;52657;51.128;5.938;2023-08-01T14:21:59;25.56;47.68
65876;HTU21D;52657;51.128;5.938;2023-08-01T14:24:25;25.48;47.76
65876;HTU21D;52657;51.128;5.938;2023-08-01T14:26:50;25.36;47.29
65876;HTU21D;52657;51.128;5.938;2023-08-01T14:29:20;25.24;46.57
65876;HTU21D;52657;51.128;5.938;2023-08-01T14:31:50;25.15;46.24
65876;HTU21D;52657;51.128;5.938;2023-08-01T14:34:16;25.07;45.96
65876;HTU21D;52657;51.128;5.938;2023-08-01T14:36:42;25.13;45.90
65876;HTU21D;52657;51.128;5.938;2023-08-01T14:39:08;25.24;45.60
65876;HTU21D;52657;51.128;5.938;2023-08-01T14:41:34;25.35;45.78
65876;HTU21D;52657;51.128;5.938;2023-08-01T14:44:00;25.45;45.61
65876;HTU21D;52657;51.128;5.938;2023-08-01T14:46:25;25.56;45.08
65876;HTU21D;52657;51.128;5.938;2023-08-01T14:48:51;25.53;44.52
65876;HTU21D;52657;51.128;5.938;2023-08-01T14:51:17;25.46;45.00
65876;HTU21D;52657;51.128;5.938;2023-08-01T14:53:43;25.40;45.29
65876;HTU21D;52657;51.128;5.938;2023-08-01T14:56:09;25.37;45.37
65876;HTU21D;52657;51.128;5.938;2023-08-01T14:58:37;25.32;45.15
65876;HTU21D;52657;51.128;5.938;2023-08-01T15:01:11;25.24;45.04
65876;HTU21D;52657;51.128;5.938;2023-08-01T15:03:37;25.09;45.48
65876;HTU21D;52657;51.128;5.938;2023-08-01T15:06:09;25.02;45.98
65876;HTU21D;52657;51.128;5.938;2023-08-01T15:08:38;24.98;45.99
65876;HTU21D;52657;51.128;5.938;2023-08-01T15:11:06;24.97;46.13
65876;HTU21D;52657;51.128;5.938;2023-08-01T15:13:33;24.91;46.00
65876;HTU21D;52657;51.128;5.938;2023-08-01T15:15:59;24.86;46.35